Pottstown, PA (19464)

10:39 AM EST on January 18, 2017 (GMT -0500)
Pottstown | | Change Station
Active Advisory: Small Craft Advisory

Elev 262 ft 40.26 °N, 75.62 °W | Updated 2 minutes ago

Overcast
Overcast
42.5 °F
Feels Like 42 °F
N
2.0
Wind Variable Wind from WNW

Today
High -- | Low -- °F
--% Chance of Precip.
Yesterday
High -- | Low -- °F
Precip. -- in
Pressure 29.95 in
Visibility 5.0 miles
Clouds Few 900 ft
Overcast 2600 ft
Windchill 42 °F
Dew Point 39 °F
Humidity 86%
Rainfall 0.00 in
Snow Depth Not available.
7:21 AM 5:04 PM
Waning Gibbous, 62% visible
SPECI KPTW 181501Z AUTO 33006KT 5SM BR FEW009 OVC026 04/03 A2995 RMK AO2 T00440033
Pressure 29.95 in
Visibility 5.0 miles
Clouds Few 900 ft
Overcast 2600 ft
Windchill 42 °F
Dew Point 39 °F
Humidity 86%
Rainfall 0.00 in
Snow Depth Not available.
7:21 AM 5:04 PM
Waning Gibbous, 62% visible
SPECI KPTW 181501Z AUTO 33006KT 5SM BR FEW009 OVC026 04/03 A2995 RMK AO2 T00440033

Get Your Daily Forecast Email!

Thanks for signing up!

Be on the lookout for a verification email in your inbox.

You'll start receiving the daily forecast at 8 AM.

×

10-Day Weather Forecast

Almanac

Astronomy

Jan. 18, 2017 Rise Set
Actual Time
Civil Twilight
Nautical Twilight
Astronomical Twilight
Moon
Length of Visible Light
Length of Day
Tomorrow will be .
, % of the Moon is Illuminated

Today's Extremes

State Highs State Lows

Community

WunderPhotos

Upload Photos

1,962,540 photos uploaded!

WunderBlog® & News

Nearby

Air Quality

  Air Quality AQ Index Pollutant
Not available.

Snow Depth

Station Depth Elevation

Earthquake Activity

City Distance Mag. Time & Date
Minimum magnitude displayed is 2.5.

Coastal Water Temperatures

Place Temperature

Stations

Nearby Weather Stations

Station Location Temp. Windchill Dew Point Humidity Wind Precip. Elev Updated Type
                   

Watches & Warnings

Small Craft Advisory
Issued: 3:08 AM EST Jan. 18, 2017 – National Weather Service

... Small Craft Advisory in effect from 1 PM this afternoon to
9 PM EST this evening...

The National Weather Service in Mount Holly has issued a Small
Craft Advisory... which is in effect from 1 PM this afternoon to
9 PM EST this evening.

* Location... the Delaware Bay

* winds... northwest 10 to 15 kt with gusts up to 25 kt.

* Seas... 1 to 3 feet.

* Timing... the strongest winds should occur between 4 PM and 7
PM.

Precautionary/preparedness actions...

A Small Craft Advisory means that wind speeds of 25 to 33 knots
are expected to produce hazardous wave conditions to small craft.
Inexperienced mariners... especially those operating smaller
vessels should avoid navigating in these conditions.



Drag